Time;durP1;ratioP1;P1;durP2;ratioP2;P2;SDS_P1;SDS_P2;PMS_P1;PMS_P2;Temp;Humidity;BMP_temperature;BMP_pressure;BME280_temperature;BME280_humidity;BME280_pressure;Samples;Min_cycle;Max_cycle;Signal;HPM_P1;HPM_P2
2022/12/12 00:01:59;;;;;;;15.15;9.80;;;;;;;0.56;65.95;95918.47;5034637;28;20057;-79
2022/12/12 00:04:26;;;;;;;18.10;10.80;;;;;;;0.56;65.43;95912.53;5034322;28;20057;-79
2022/12/12 00:06:54;;;;;;;18.00;11.02;;;;;;;0.55;66.22;95911.75;5040104;28;20113;-79
2022/12/12 00:09:21;;;;;;;16.92;11.13;;;;;;;0.54;66.33;95912.66;5046388;28;20139;-79
2022/12/12 00:11:49;;;;;;;15.88;11.02;;;;;;;0.55;65.86;95914.31;5044070;28;20499;-79
2022/12/12 00:14:18;;;;;;;20.92;12.13;;;;;;;0.56;66.52;95912.53;5036752;28;20052;-78
2022/12/12 00:16:45;;;;;;;21.40;12.73;;;;;;;0.57;66.15;95914.19;5036343;28;20056;-79
2022/12/12 00:19:13;;;;;;;21.25;13.13;;;;;;;0.56;66.22;95912.53;5035326;28;20042;-79
2022/12/12 00:21:40;;;;;;;19.38;12.07;;;;;;;0.57;66.95;95920.13;5035684;28;20060;-79
2022/12/12 00:24:08;;;;;;;19.08;11.98;;;;;;;0.59;66.54;95922.53;5036973;28;20422;-79
2022/12/12 00:26:36;;;;;;;19.63;11.95;;;;;;;0.59;66.20;95918.22;5035667;28;20057;-79
2022/12/12 00:29:05;;;;;;;19.20;12.35;;;;;;;0.57;65.86;95916.75;5033834;28;20056;-79
2022/12/12 00:31:34;;;;;;;79.47;40.53;;;;;;;0.56;66.24;95912.53;5034725;28;20057;-79
2022/12/12 00:34:01;;;;;;;71.45;38.22;;;;;;;0.54;66.69;95909.28;5035647;28;20045;-79
2022/12/12 00:36:30;;;;;;;39.88;21.95;;;;;;;0.54;66.32;95910.09;5035502;28;20085;-78
2022/12/12 00:38:59;;;;;;;28.25;16.17;;;;;;;0.53;66.81;95913.63;5034424;28;20042;-79
2022/12/12 00:41:26;;;;;;;21.65;13.80;;;;;;;0.53;66.42;95915.41;5033855;28;20502;-79
2022/12/12 00:43:54;;;;;;;22.63;13.75;;;;;;;0.52;66.68;95921.44;5032865;28;20360;-79
2022/12/12 00:46:24;;;;;;;23.55;14.27;;;;;;;0.51;67.22;95917.28;5033229;28;20046;-78
2022/12/12 00:48:58;;;;;;;48.03;25.80;;;;;;;0.50;66.67;95910.50;5032975;28;20053;-79
2022/12/12 00:51:28;;;;;;;107.55;57.92;;;;;;;0.49;67.73;95908.91;5032878;28;20059;-78
2022/12/12 00:53:56;;;;;;;34.88;19.23;;;;;;;0.49;67.35;95919.97;5032933;28;20057;-78
2022/12/12 00:56:25;;;;;;;26.35;14.77;;;;;;;0.49;66.85;95906.34;5034520;28;20045;-79
2022/12/12 00:58:53;;;;;;;22.30;13.32;;;;;;;0.49;67.84;95921.75;5034179;28;20046;-79
2022/12/12 01:01:22;;;;;;;22.75;14.05;;;;;;;0.50;67.30;95925.91;5034447;28;20053;-79
2022/12/12 01:03:51;;;;;;;24.95;15.65;;;;;;;0.49;67.25;95919.97;5034435;28;20461;-79
2022/12/12 01:06:21;;;;;;;23.77;14.57;;;;;;;0.48;67.65;95918.38;5033765;28;20060;-78
2022/12/12 01:08:49;;;;;;;27.08;15.38;;;;;;;0.46;67.75;95922.00;5033264;28;20054;-79
2022/12/12 01:11:17;;;;;;;23.42;14.70;;;;;;;0.43;67.96;95922.28;5034654;28;20053;-79
2022/12/12 01:13:49;;;;;;;27.10;15.50;;;;;;;0.43;67.70;95917.16;5034496;28;20041;-78
2022/12/12 01:16:17;;;;;;;23.53;14.10;;;;;;;0.44;67.99;95921.31;5034577;28;20060;-78
2022/12/12 01:18:45;;;;;;;22.67;13.80;;;;;;;0.39;67.71;95927.69;5033772;28;20148;-79
2022/12/12 01:21:14;;;;;;;20.20;13.55;;;;;;;0.37;66.82;95931.31;5100635;22;20056;-79
2022/12/12 01:23:44;;;;;;;22.10;13.52;;;;;;;0.36;66.59;95942.53;5054091;28;20605;-79
2022/12/12 01:26:15;;;;;;;24.80;14.70;;;;;;;0.36;67.39;95939.97;5054086;28;20495;-79
2022/12/12 01:28:43;;;;;;;26.05;16.38;;;;;;;0.36;67.69;95934.84;5053798;28;20056;-78
2022/12/12 01:31:11;;;;;;;22.30;15.57;;;;;;;0.36;68.15;95938.19;5053998;28;20063;-79
2022/12/12 01:33:44;;;;;;;24.27;15.20;;;;;;;0.38;67.63;95936.31;5053781;28;20057;-79
2022/12/12 01:36:15;;;;;;;25.20;15.55;;;;;;;0.40;68.21;95938.75;5053814;28;20095;-79
2022/12/12 01:38:46;;;;;;;23.27;14.82;;;;;;;0.43;67.58;95942.81;5053893;28;20099;-79
2022/12/12 01:41:14;;;;;;;26.08;15.73;;;;;;;0.44;67.37;95949.53;5053995;28;20068;-79
2022/12/12 01:43:42;;;;;;;24.80;14.73;;;;;;;0.39;67.17;95952.50;5053681;28;20059;-79
2022/12/12 01:46:36;;;;;;;25.27;14.88;;;;;;;0.37;68.82;95947.53;5053605;28;20049;-79
2022/12/12 01:49:11;;;;;;;25.85;14.65;;;;;;;0.36;68.81;95953.59;5053374;28;20048;-79
2022/12/12 01:51:40;;;;;;;26.98;15.32;;;;;;;0.36;68.41;95948.47;5053612;28;20183;-79
2022/12/12 01:54:13;;;;;;;23.55;15.27;;;;;;;0.36;67.88;95948.47;5053749;28;20055;-78
2022/12/12 01:56:44;;;;;;;21.73;14.25;;;;;;;0.39;68.24;95948.22;5053499;28;20055;-79
2022/12/12 01:59:15;;;;;;;26.35;14.68;;;;;;;0.38;67.44;95946.56;5052871;28;20049;-79
2022/12/12 02:01:43;;;;;;;22.30;13.68;;;;;;;0.36;68.44;95948.47;5053519;28;20049;-79
2022/12/12 02:04:12;;;;;;;22.73;14.23;;;;;;;0.39;67.73;95949.94;5053574;28;20048;-79
2022/12/12 02:06:41;;;;;;;22.80;13.25;;;;;;;0.37;68.56;95949.28;5053559;28;20055;-78
2022/12/12 02:09:14;;;;;;;22.15;14.35;;;;;;;0.36;68.39;95953.59;5052955;28;20045;-79
2022/12/12 02:11:45;;;;;;;22.25;13.55;;;;;;;0.36;68.25;95943.34;5053359;28;20052;-78
2022/12/12 02:14:15;;;;;;;25.73;15.57;;;;;;;0.38;68.22;95941.44;5052912;28;20052;-79
2022/12/12 02:16:55;;;;;;;24.10;15.05;;;;;;;0.39;69.04;95948.22;5052929;28;20075;-79
2022/12/12 02:19:53;;;;;;;22.40;13.65;;;;;;;0.40;68.15;95949.81;5052605;28;20045;-79
2022/12/12 02:22:38;;;;;;;22.38;13.45;;;;;;;0.41;69.31;95948.84;5053266;28;20053;-79
2022/12/12 02:25:34;;;;;;;25.63;13.77;;;;;;;0.40;67.84;95949.81;5052990;28;20055;-79
2022/12/12 02:28:23;;;;;;;23.05;13.20;;;;;;;0.36;68.61;95953.59;5052814;28;20063;-78
2022/12/12 02:31:10;;;;;;;22.70;13.45;;;;;;;0.34;69.19;95960.63;5052670;28;20515;-79
2022/12/12 02:33:42;;;;;;;20.35;13.52;;;;;;;0.33;67.96;95968.47;5053020;28;20060;-78
2022/12/12 02:36:15;;;;;;;22.95;13.07;;;;;;;0.30;67.70;95968.72;5052766;28;20049;-78
2022/12/12 02:38:51;;;;;;;25.20;14.43;;;;;;;0.23;66.67;95963.31;5052536;28;20056;-79
2022/12/12 02:41:28;;;;;;;24.85;14.27;;;;;;;0.19;66.78;95962.75;5062188;28;20049;-79
2022/12/12 02:44:08;;;;;;;23.77;14.23;;;;;;;0.17;67.07;95966.41;5074748;28;20088;-78
2022/12/12 02:46:45;;;;;;;22.83;13.70;;;;;;;0.16;67.44;95967.34;5060438;28;20051;-79
2022/12/12 02:49:17;;;;;;;25.23;14.90;;;;;;;0.15;66.92;95970.84;5052589;28;20072;-78
2022/12/12 02:51:47;;;;;;;20.98;13.35;;;;;;;0.12;66.88;95964.22;5052726;28;20048;-79
2022/12/12 02:54:18;;;;;;;22.90;14.82;;;;;;;0.11;67.64;95970.31;5053184;28;20045;-79
2022/12/12 02:56:50;;;;;;;22.27;13.95;;;;;;;0.15;68.27;95976.81;5052596;28;20053;-79
2022/12/12 02:59:23;;;;;;;21.40;13.60;;;;;;;0.18;68.22;95965.47;5052218;28;20048;-79
2022/12/12 03:02:24;;;;;;;24.02;14.35;;;;;;;0.21;69.73;95965.19;5052573;28;20369;-79
2022/12/12 03:08:07;;;;;;;23.15;13.98;;;;;;;0.26;68.43;95965.59;5052464;28;20057;-79
2022/12/12 03:10:50;;;;;;;23.52;13.30;;;;;;;0.23;69.19;95963.31;5052442;28;20045;-79
2022/12/12 03:13:29;;;;;;;21.90;13.77;;;;;;;0.23;68.63;95962.50;5052402;28;20478;-78
2022/12/12 03:16:05;;;;;;;24.02;14.73;;;;;;;0.22;69.22;95959.13;5052458;28;20715;-79
2022/12/12 03:18:40;;;;;;;22.55;13.80;;;;;;;0.22;68.20;95961.69;5052628;28;20052;-79
2022/12/12 03:21:15;;;;;;;23.65;14.93;;;;;;;0.17;67.23;95967.19;5052407;28;20494;-79
2022/12/12 03:23:47;;;;;;;22.38;14.25;;;;;;;0.10;67.03;95963.56;5052472;28;20055;-79
2022/12/12 03:26:19;;;;;;;21.10;13.88;;;;;;;0.09;67.87;95971.38;5052486;28;20052;-79
2022/12/12 03:28:50;;;;;;;24.47;14.83;;;;;;;0.11;68.48;95969.50;5052506;28;20418;-79
2022/12/12 03:31:23;;;;;;;21.85;14.20;;;;;;;0.12;69.29;95966.00;5056487;28;20270;-79
2022/12/12 03:33:56;;;;;;;23.38;13.38;;;;;;;0.16;69.21;95970.72;5056169;28;20110;-79
2022/12/12 03:36:28;;;;;;;23.00;13.65;;;;;;;0.17;68.65;95971.53;5067777;28;20051;-80
2022/12/12 03:38:59;;;;;;;26.48;16.27;;;;;;;0.19;69.44;95967.06;5071431;28;20052;-79
2022/12/12 03:41:31;;;;;;;23.42;14.77;;;;;;;0.24;69.72;95966.69;5061728;28;20052;-79
2022/12/12 03:44:05;;;;;;;24.55;15.30;;;;;;;0.28;69.57;95968.03;5056632;28;20494;-78
2022/12/12 03:46:40;;;;;;;24.55;14.65;;;;;;;0.26;69.63;95970.72;5056015;28;20067;-79
2022/12/12 03:49:14;;;;;;;23.48;15.02;;;;;;;0.28;70.40;95971.41;5055791;28;20084;-79
2022/12/12 03:51:45;;;;;;;31.05;16.02;;;;;;;0.29;70.14;95974.81;5056624;28;20056;-79
2022/12/12 03:54:21;;;;;;;25.83;16.38;;;;;;;0.30;69.82;95969.53;5055744;28;20080;-79
2022/12/12 03:56:55;;;;;;;21.38;13.52;;;;;;;0.31;70.01;95968.59;5055808;28;20053;-79
2022/12/12 03:59:26;;;;;;;25.42;16.92;;;;;;;0.35;70.46;95961.41;5055402;28;20048;-79
2022/12/12 04:02:00;;;;;;;25.48;15.43;;;;;;;0.35;69.86;95967.38;5055618;28;20045;-78
2022/12/12 04:04:34;;;;;;;23.10;14.68;;;;;;;0.31;70.18;95966.03;5055629;28;20502;-79
2022/12/12 04:07:06;;;;;;;27.27;16.20;;;;;;;0.34;69.86;95970.88;5056082;28;20135;-79
2022/12/12 04:15:27;;;;;;;25.02;15.68;;;;;;;0.39;69.71;95973.88;5055621;28;20045;-78
2022/12/12 04:18:08;;;;;;;24.02;14.45;;;;;;;0.39;70.22;95975.59;5055104;28;20053;-79
2022/12/12 04:23:37;;;;;;;24.33;15.50;;;;;;;0.36;68.06;95984.38;5055587;28;20048;-78
2022/12/12 04:29:03;;;;;;;24.02;14.90;;;;;;;0.26;68.10;95983.56;5055114;28;20049;-78
2022/12/12 04:31:33;;;;;;;24.83;15.18;;;;;;;0.26;68.88;95991.25;5054977;28;20090;-79
2022/12/12 04:34:07;;;;;;;25.33;16.02;;;;;;;0.25;69.19;95984.50;5055308;28;20049;-79
2022/12/12 04:36:37;;;;;;;25.45;14.38;;;;;;;0.25;68.61;95987.06;5055185;28;20048;-79
2022/12/12 04:39:06;;;;;;;24.58;15.52;;;;;;;0.25;68.14;95992.22;5054479;28;20048;-78
2022/12/12 04:41:37;;;;;;;25.85;16.23;;;;;;;0.24;68.77;95992.31;5054962;28;20414;-79
2022/12/12 04:44:09;;;;;;;26.08;15.52;;;;;;;0.23;68.36;95983.03;5055126;28;20450;-79
2022/12/12 04:46:40;;;;;;;23.92;15.05;;;;;;;0.19;68.66;95985.84;5055219;28;20063;-79
2022/12/12 04:49:14;;;;;;;24.40;15.32;;;;;;;0.17;67.32;95989.47;5054936;28;20053;-79
2022/12/12 04:51:47;;;;;;;23.48;14.48;;;;;;;0.19;67.05;96000.41;5055334;28;20046;-79
2022/12/12 04:54:22;;;;;;;23.33;15.10;;;;;;;0.16;67.29;95998.13;5054870;28;20056;-79
2022/12/12 04:56:53;;;;;;;23.55;14.88;;;;;;;0.14;67.86;95994.88;5054687;28;20049;-78
2022/12/12 04:59:21;;;;;;;25.55;14.50;;;;;;;0.13;67.74;96000.94;5054685;28;20055;-79
2022/12/12 05:01:55;;;;;;;25.08;14.52;;;;;;;0.10;67.94;95999.47;5054815;28;20056;-81
2022/12/12 05:04:29;;;;;;;24.25;15.93;;;;;;;0.09;68.69;95997.00;5054423;28;20506;-79
2022/12/12 05:07:02;;;;;;;23.13;14.30;;;;;;;0.09;68.56;95997.84;5054746;28;20055;-79
2022/12/12 05:09:30;;;;;;;25.52;14.95;;;;;;;0.10;68.24;96003.78;5054186;28;20065;-78
2022/12/12 05:11:57;;;;;;;26.33;15.27;;;;;;;0.10;68.03;96003.78;5054503;28;20056;-79
2022/12/12 05:14:26;;;;;;;25.92;15.00;;;;;;;0.12;67.91;96010.41;5054258;28;20139;-79
2022/12/12 05:16:57;;;;;;;22.20;13.88;;;;;;;0.13;67.20;96004.34;5054259;28;20541;-79
2022/12/12 05:19:25;;;;;;;23.50;14.18;;;;;;;0.13;66.98;96004.34;5054102;28;20059;-79
2022/12/12 05:21:53;;;;;;;23.10;15.02;;;;;;;0.10;67.54;96011.47;5054345;28;20052;-79
2022/12/12 05:24:21;;;;;;;22.48;13.95;;;;;;;0.08;68.00;96014.16;5054045;28;20514;-79
2022/12/12 05:26:49;;;;;;;27.08;15.15;;;;;;;0.10;68.92;96019.16;5053842;28;20055;-79
2022/12/12 05:29:17;;;;;;;25.70;14.43;;;;;;;0.10;68.38;96019.16;5053886;28;20148;-78
2022/12/12 05:31:44;;;;;;;25.65;15.50;;;;;;;0.11;68.32;96023.34;5077038;28;20033;-79
2022/12/12 05:34:12;;;;;;;25.33;14.63;;;;;;;0.13;68.37;96018.91;5073971;28;20049;-78
2022/12/12 05:36:39;;;;;;;26.58;15.52;;;;;;;0.12;68.62;96024.97;5054937;28;20049;-79
2022/12/12 05:39:07;;;;;;;23.17;13.82;;;;;;;0.12;68.50;96023.22;5054067;28;20059;-78
2022/12/12 05:41:36;;;;;;;26.23;14.95;;;;;;;0.13;68.61;96024.03;5054226;28;20045;-78
2022/12/12 05:44:03;;;;;;;25.02;15.18;;;;;;;0.11;67.23;96021.63;5054066;28;20075;-79
2022/12/12 05:46:31;;;;;;;23.50;14.45;;;;;;;0.11;67.73;96031.03;5054211;28;20049;-78
2022/12/12 05:48:59;;;;;;;24.98;15.32;;;;;;;0.12;68.88;96022.41;5053511;28;20048;-79
2022/12/12 05:51:26;;;;;;;23.55;14.10;;;;;;;0.13;68.35;96024.84;5053682;28;20045;-79
2022/12/12 05:53:54;;;;;;;25.98;15.02;;;;;;;0.12;67.69;96024.97;5053506;28;20048;-79
2022/12/12 05:56:21;;;;;;;26.83;16.27;;;;;;;0.14;67.47;96020.53;5053531;28;20048;-79
2022/12/12 05:58:50;;;;;;;21.30;13.40;;;;;;;0.12;66.73;96019.84;5053436;28;20426;-79
2022/12/12 06:01:18;;;;;;;28.42;15.02;;;;;;;0.13;67.29;96026.59;5053338;28;20517;-79
2022/12/12 06:03:45;;;;;;;24.42;14.43;;;;;;;0.11;67.39;96025.91;5053214;28;20060;-78
2022/12/12 06:06:13;;;;;;;25.55;14.90;;;;;;;0.08;67.15;96031.31;5053466;28;20461;-78
2022/12/12 06:08:41;;;;;;;24.23;14.65;;;;;;;0.03;67.24;96033.47;5052605;28;20068;-79
2022/12/12 06:11:08;;;;;;;24.08;14.10;;;;;;;-0.03;67.28;96020.19;5053177;28;20048;-79
2022/12/12 06:13:38;;;;;;;24.40;14.25;;;;;;;-0.02;67.20;96019.28;5053374;28;20098;-79
2022/12/12 06:16:08;;;;;;;23.52;14.35;;;;;;;0.02;67.21;96022.38;5053206;28;20052;-78
2022/12/12 06:18:36;;;;;;;21.63;14.10;;;;;;;0.06;66.93;96026.31;5052958;28;20053;-79
2022/12/12 06:21:06;;;;;;;22.75;14.52;;;;;;;0.07;67.15;96024.56;5052640;28;20053;-79
2022/12/12 06:23:36;;;;;;;22.20;14.10;;;;;;;0.07;67.80;96034.84;5053009;28;20056;-79
2022/12/12 06:26:04;;;;;;;25.45;13.90;;;;;;;0.06;67.53;96025.50;5053228;28;20052;-79
2022/12/12 06:28:32;;;;;;;22.90;12.80;;;;;;;0.05;67.23;96029.81;5053017;28;20131;-79
2022/12/12 06:31:00;;;;;;;22.75;13.70;;;;;;;0.02;66.44;96037.75;5052915;28;20056;-78
2022/12/12 06:33:31;;;;;;;21.60;13.25;;;;;;;-0.01;66.49;96035.47;5052987;28;20045;-79
2022/12/12 06:35:59;;;;;;;23.58;13.73;;;;;;;-0.06;66.28;96038.44;5051741;28;20040;-79
2022/12/12 06:38:27;;;;;;;24.48;15.13;;;;;;;-0.16;65.77;96035.00;5039615;28;20061;-80
2022/12/12 06:40:55;;;;;;;24.70;13.88;;;;;;;-0.23;65.88;96039.03;5052353;28;20079;-80
2022/12/12 06:43:24;;;;;;;23.83;14.20;;;;;;;-0.25;65.97;96039.16;5049710;28;20049;-81
2022/12/12 06:45:52;;;;;;;23.98;14.00;;;;;;;-0.25;66.60;96040.91;5043247;28;20079;-79
2022/12/12 06:48:20;;;;;;;25.27;15.45;;;;;;;-0.27;65.83;96042.78;5044099;28;20048;-80
2022/12/12 06:50:49;;;;;;;24.75;13.90;;;;;;;-0.31;66.12;96041.41;5053126;28;20418;-81
2022/12/12 06:53:16;;;;;;;22.65;13.93;;;;;;;-0.29;66.34;96034.41;5053240;28;20434;-80
2022/12/12 06:55:44;;;;;;;27.52;14.68;;;;;;;-0.26;66.75;96034.16;5050142;28;20049;-79
2022/12/12 06:58:11;;;;;;;19.83;13.13;;;;;;;-0.23;67.00;96034.72;5051917;28;20049;-76
2022/12/12 07:00:40;;;;;;;24.20;14.05;;;;;;;-0.20;67.27;96038.75;5046818;28;20050;-77
2022/12/12 07:03:09;;;;;;;22.25;14.20;;;;;;;-0.19;66.15;96037.84;5061515;28;20409;-77
2022/12/12 07:05:36;;;;;;;21.70;14.38;;;;;;;-0.21;66.54;96052.53;5064710;28;20049;-76
2022/12/12 07:08:06;;;;;;;20.27;12.88;;;;;;;-0.23;66.50;96050.09;5044502;28;20084;-78
2022/12/12 07:10:35;;;;;;;23.90;13.95;;;;;;;-0.25;67.14;96059.66;5066606;28;20414;-78
2022/12/12 07:13:03;;;;;;;24.15;14.60;;;;;;;-0.25;67.66;96056.28;5044067;28;20045;-76
2022/12/12 07:15:31;;;;;;;22.50;14.43;;;;;;;-0.23;67.73;96051.84;5045938;28;20052;-77
2022/12/12 07:17:58;;;;;;;23.00;14.15;;;;;;;-0.25;66.50;96063.97;5054000;28;20049;-77
2022/12/12 07:20:26;;;;;;;26.15;14.98;;;;;;;-0.31;66.38;96059.34;5069605;22;20187;-76
2022/12/12 07:22:54;;;;;;;26.60;15.15;;;;;;;-0.33;67.59;96063.78;5050915;28;20048;-76
2022/12/12 07:25:22;;;;;;;22.88;14.90;;;;;;;-0.36;67.76;96069.19;5044455;28;20059;-76
2022/12/12 07:27:50;;;;;;;23.42;14.02;;;;;;;-0.39;67.98;96064.28;5049321;28;20127;-76
2022/12/12 07:30:18;;;;;;;24.58;14.65;;;;;;;-0.40;68.23;96070.38;5046670;28;20392;-76
2022/12/12 07:32:45;;;;;;;25.42;15.57;;;;;;;-0.40;68.71;96070.38;5021654;28;20052;-75
2022/12/12 07:35:13;;;;;;;26.17;15.10;;;;;;;-0.41;68.37;96074.69;5029048;28;20658;-76
2022/12/12 07:37:41;;;;;;;24.27;14.82;;;;;;;-0.44;67.15;96078.31;5024202;28;20057;-76
2022/12/12 07:40:09;;;;;;;27.10;15.50;;;;;;;-0.47;68.16;96083.69;5029237;28;20049;-76
2022/12/12 07:42:38;;;;;;;29.85;16.30;;;;;;;-0.48;67.14;96086.38;5025299;28;20037;-76
2022/12/12 07:45:07;;;;;;;26.20;15.77;;;;;;;-0.52;66.98;96087.56;5032006;28;20133;-75
2022/12/12 07:47:41;;;;;;;30.02;17.65;;;;;;;-0.53;67.72;96089.31;5024086;28;20069;-76
2022/12/12 07:50:09;;;;;;;27.70;15.88;;;;;;;-0.50;68.36;96093.38;5023714;28;20137;-76
2022/12/12 07:52:37;;;;;;;25.25;15.57;;;;;;;-0.49;67.73;96088.13;5020395;28;20054;-76
2022/12/12 07:55:06;;;;;;;26.45;16.58;;;;;;;-0.50;67.31;96094.19;5044262;28;20049;-76
2022/12/12 07:57:33;;;;;;;30.25;15.45;;;;;;;-0.54;66.66;96094.56;5056293;28;20083;-76
2022/12/12 08:00:03;;;;;;;26.13;15.60;;;;;;;-0.58;66.32;96093.19;5037468;28;20057;-76
2022/12/12 08:02:31;;;;;;;27.40;16.38;;;;;;;-0.64;66.75;96097.06;5018879;28;20393;-76
2022/12/12 08:04:59;;;;;;;26.70;16.85;;;;;;;-0.66;67.45;96099.75;5019184;28;20049;-76
2022/12/12 08:07:26;;;;;;;26.60;16.27;;;;;;;-0.60;68.23;96100.19;5024921;28;20393;-77
2022/12/12 08:09:54;;;;;;;26.80;16.77;;;;;;;-0.57;68.16;96103.28;5019755;28;20042;-76
2022/12/12 08:12:22;;;;;;;30.48;18.38;;;;;;;-0.55;67.36;96096.31;5019826;28;20056;-75
2022/12/12 08:14:49;;;;;;;28.52;16.83;;;;;;;-0.56;67.15;96107.50;5031881;28;20411;-76
2022/12/12 08:17:18;;;;;;;29.38;18.10;;;;;;;-0.59;66.79;96110.31;5025738;28;20057;-76
2022/12/12 08:19:46;;;;;;;31.40;18.27;;;;;;;-0.58;67.03;96106.81;5026370;28;20046;-76
2022/12/12 08:22:13;;;;;;;32.05;19.67;;;;;;;-0.58;66.77;96106.81;5014774;28;20050;-76
2022/12/12 08:24:41;;;;;;;34.88;19.95;;;;;;;-0.64;66.42;96107.31;5029661;28;20455;-76
2022/12/12 08:27:10;;;;;;;34.20;18.58;;;;;;;-0.64;66.84;96107.31;5030739;28;20045;-77
2022/12/12 08:29:42;;;;;;;31.00;18.08;;;;;;;-0.59;67.35;96112.88;5015723;28;20049;-76
2022/12/12 08:32:10;;;;;;;29.25;17.17;;;;;;;-0.59;66.80;96115.44;5032067;28;20053;-76
2022/12/12 08:34:39;;;;;;;32.10;18.65;;;;;;;-0.60;66.53;96115.56;5028355;28;20034;-76
2022/12/12 08:37:07;;;;;;;31.27;17.90;;;;;;;-0.60;66.98;96121.50;5036642;28;20056;-76
2022/12/12 08:39:36;;;;;;;34.17;18.77;;;;;;;-0.57;67.11;96118.66;5054285;28;20049;-76
2022/12/12 08:42:04;;;;;;;29.42;17.52;;;;;;;-0.54;67.31;96127.88;5036220;28;20396;-75
2022/12/12 08:44:32;;;;;;;29.48;17.80;;;;;;;-0.50;67.37;96130.06;5027997;28;20564;-76
2022/12/12 08:46:59;;;;;;;34.35;19.63;;;;;;;-0.47;67.01;96127.25;5032759;28;20049;-76
2022/12/12 08:49:27;;;;;;;31.35;18.38;;;;;;;-0.44;66.83;96137.25;5028406;28;20054;-76
2022/12/12 08:51:56;;;;;;;35.38;19.70;;;;;;;-0.40;66.55;96134.44;5021584;28;20522;-76
2022/12/12 08:54:25;;;;;;;32.22;18.83;;;;;;;-0.36;66.41;96135.81;5032924;28;20427;-76
2022/12/12 08:56:52;;;;;;;32.70;20.38;;;;;;;-0.34;66.42;96142.44;5033512;28;20063;-76
2022/12/12 08:59:20;;;;;;;36.47;20.13;;;;;;;-0.35;66.05;96143.38;5025322;28;20053;-76
2022/12/12 09:01:50;;;;;;;33.28;21.15;;;;;;;-0.36;65.81;96151.19;5023742;28;20045;-76
2022/12/12 09:04:18;;;;;;;31.95;19.95;;;;;;;-0.39;66.19;96156.53;5027241;28;20103;-76
2022/12/12 09:06:45;;;;;;;36.78;21.13;;;;;;;-0.44;65.95;96155.19;5034491;28;20049;-76
2022/12/12 09:09:14;;;;;;;34.92;22.15;;;;;;;-0.47;65.91;96159.75;5033287;28;20054;-76
2022/12/12 09:11:42;;;;;;;36.97;21.58;;;;;;;-0.50;66.37;96158.25;5032622;28;20412;-76
2022/12/12 09:14:10;;;;;;;35.42;21.73;;;;;;;-0.52;66.27;96162.69;5029103;28;20050;-76
2022/12/12 09:16:38;;;;;;;33.22;21.25;;;;;;;-0.55;66.29;96162.91;5029004;28;20053;-76
2022/12/12 09:19:05;;;;;;;33.97;21.02;;;;;;;-0.53;66.33;96167.91;5032492;28;20503;-76
2022/12/12 09:21:33;;;;;;;34.75;20.02;;;;;;;-0.51;66.38;96168.63;5020271;28;20057;-76
2022/12/12 09:24:01;;;;;;;37.90;19.38;;;;;;;-0.50;66.58;96173.63;5019306;28;20045;-76
2022/12/12 09:26:31;;;;;;;30.73;18.13;;;;;;;-0.48;66.03;96181.16;5026732;28;20049;-76
2022/12/12 09:28:58;;;;;;;29.77;18.38;;;;;;;-0.49;66.56;96182.91;5027659;28;20076;-76
2022/12/12 09:31:26;;;;;;;30.88;18.48;;;;;;;-0.50;66.69;96186.44;5050667;28;20486;-77
2022/12/12 09:33:53;;;;;;;26.85;16.77;;;;;;;-0.49;66.93;96189.81;5049003;28;20045;-76
2022/12/12 09:36:21;;;;;;;28.40;16.83;;;;;;;-0.48;67.13;96182.00;5031680;28;20068;-76
2022/12/12 09:38:49;;;;;;;36.28;22.27;;;;;;;-0.45;67.04;96186.06;5035144;28;20053;-76
2022/12/12 09:41:19;;;;;;;34.88;20.23;;;;;;;-0.43;66.79;96197.81;5021153;28;20061;-76
2022/12/12 09:43:54;;;;;;;40.53;22.55;;;;;;;-0.38;67.96;96183.81;5029301;28;20041;-75
2022/12/12 09:46:31;;;;;;;32.83;18.88;;;;;;;-0.36;68.05;96182.75;5026885;28;20061;-76
2022/12/12 09:49:13;;;;;;;28.42;16.85;;;;;;;-0.30;67.86;96189.13;5030906;28;20049;-76
2022/12/12 09:51:44;;;;;;;29.98;17.33;;;;;;;-0.27;67.70;96183.75;5035040;28;20049;-76
2022/12/12 09:54:14;;;;;;;27.27;16.98;;;;;;;-0.24;68.01;96178.38;5020781;28;20499;-75
2022/12/12 09:56:52;;;;;;;26.35;16.25;;;;;;;-0.18;68.00;96180.44;5022462;28;20052;-76
2022/12/12 09:59:30;;;;;;;28.02;16.25;;;;;;;-0.13;67.87;96173.19;5027861;28;20072;-76
2022/12/12 10:02:05;;;;;;;28.25;15.90;;;;;;;-0.09;67.58;96164.31;5031340;28;20053;-76
2022/12/12 10:04:39;;;;;;;25.65;16.15;;;;;;;-0.06;66.91;96164.06;5032916;28;20045;-76
2022/12/12 10:07:13;;;;;;;25.98;16.10;;;;;;;0.02;66.08;96167.72;5023427;28;20053;-76
2022/12/12 10:09:52;;;;;;;27.35;17.20;;;;;;;0.06;66.50;96166.53;5025241;28;20396;-76
2022/12/12 10:12:21;;;;;;;24.27;15.23;;;;;;;0.09;65.41;96174.81;5033013;28;20060;-76
2022/12/12 10:14:53;;;;;;;27.90;16.48;;;;;;;0.08;65.29;96165.47;5029487;28;20041;-76
2022/12/12 10:17:27;;;;;;;26.05;16.40;;;;;;;0.10;65.41;96167.91;5028425;28;20507;-76
2022/12/12 10:19:59;;;;;;;25.55;16.00;;;;;;;0.12;65.04;96156.59;5025690;28;20049;-75
2022/12/12 10:22:34;;;;;;;26.27;16.63;;;;;;;0.15;64.96;96153.78;5028584;28;20055;-76
2022/12/12 10:25:08;;;;;;;26.17;15.73;;;;;;;0.18;64.58;96150.13;5025249;28;20045;-76
2022/12/12 10:27:36;;;;;;;25.40;15.32;;;;;;;0.22;65.50;96154.06;5014856;28;20068;-76
2022/12/12 10:30:16;;;;;;;25.13;16.75;;;;;;;0.27;65.34;96149.38;5024938;28;20054;-75
2022/12/12 10:32:55;;;;;;;29.45;17.55;;;;;;;0.30;66.24;96149.09;5031316;28;20051;-75
2022/12/12 10:35:29;;;;;;;27.23;16.67;;;;;;;0.39;66.74;96157.78;5028219;28;20037;-76
2022/12/12 10:38:09;;;;;;;27.88;17.77;;;;;;;0.45;67.60;96157.25;5020012;28;20077;-76
2022/12/12 10:40:51;;;;;;;32.55;20.13;;;;;;;0.50;65.39;96154.31;5026689;28;20053;-76
2022/12/12 10:43:22;;;;;;;30.55;18.08;;;;;;;0.51;64.78;96148.25;5032923;28;20045;-76
2022/12/12 10:46:12;;;;;;;33.47;20.83;;;;;;;0.53;66.11;96143.78;5031428;28;20506;-76
2022/12/12 10:48:41;;;;;;;35.28;20.85;;;;;;;0.57;65.56;96145.16;5028071;28;20053;-76
2022/12/12 10:51:12;;;;;;;29.10;18.55;;;;;;;0.59;65.04;96148.38;5013732;28;20111;-76
2022/12/12 10:53:40;;;;;;;30.88;18.38;;;;;;;0.59;65.75;96159.47;5018557;28;20057;-76
2022/12/12 10:56:10;;;;;;;25.85;17.17;;;;;;;0.63;65.64;96152.31;5022127;28;20516;-76
2022/12/12 10:58:40;;;;;;;29.70;17.80;;;;;;;0.72;66.25;96154.13;5012091;28;20050;-75
2022/12/12 11:01:18;;;;;;;27.50;16.45;;;;;;;0.81;64.49;96145.63;5027046;28;20048;-76
2022/12/12 11:04:06;;;;;;;25.80;16.33;;;;;;;0.87;65.06;96151.97;5032290;28;20095;-76
2022/12/12 11:06:38;;;;;;;27.40;16.45;;;;;;;0.91;66.00;96148.19;5030467;28;20053;-76
2022/12/12 11:09:08;;;;;;;25.25;15.75;;;;;;;0.99;65.13;96153.47;5028393;28;20459;-75
2022/12/12 11:11:36;;;;;;;26.25;15.48;;;;;;;1.10;64.31;96151.75;5020351;28;20132;-76
2022/12/12 11:14:22;;;;;;;22.73;14.73;;;;;;;1.16;62.45;96146.88;5025402;28;20057;-75
2022/12/12 11:16:51;;;;;;;34.20;19.67;;;;;;;1.27;64.87;96153.66;5030744;28;20059;-76
2022/12/12 11:19:20;;;;;;;26.98;16.38;;;;;;;1.35;63.55;96150.38;5028864;28;20065;-76
2022/12/12 11:21:49;;;;;;;26.38;16.10;;;;;;;1.40;63.32;96151.63;5018977;28;20045;-76
2022/12/12 11:24:19;;;;;;;25.83;16.25;;;;;;;1.45;63.35;96140.94;5031766;28;20557;-76
2022/12/12 11:26:51;;;;;;;25.50;16.08;;;;;;;1.46;62.17;96152.81;5030027;28;20049;-74
2022/12/12 11:29:30;;;;;;;19.27;12.30;;;;;;;1.44;61.34;96150.41;5042863;28;20105;-74
2022/12/12 11:32:00;;;;;;;25.23;15.68;;;;;;;1.42;61.95;96160.00;5042995;28;20052;-74
2022/12/12 11:34:29;;;;;;;23.00;14.25;;;;;;;1.42;62.05;96156.59;5031316;28;20049;-75
2022/12/12 11:36:58;;;;;;;25.23;14.88;;;;;;;1.43;62.14;96158.25;5026032;28;20058;-75
2022/12/12 11:39:30;;;;;;;23.35;14.63;;;;;;;1.41;61.45;96155.00;5032114;28;20470;-75
2022/12/12 11:42:00;;;;;;;26.17;14.35;;;;;;;1.37;61.63;96156.22;5024282;28;20471;-75
2022/12/12 11:44:33;;;;;;;23.73;14.73;;;;;;;1.33;60.43;96149.72;5014775;28;20053;-75
2022/12/12 11:47:23;;;;;;;22.73;14.20;;;;;;;1.27;60.40;96147.66;5027205;28;20049;-75
2022/12/12 11:49:53;;;;;;;22.27;12.75;;;;;;;1.23;60.87;96147.97;5030016;28;20056;-75
2022/12/12 11:52:23;;;;;;;21.70;12.85;;;;;;;1.22;61.28;96136.06;5029643;28;20053;-75
2022/12/12 11:54:51;;;;;;;19.95;12.25;;;;;;;1.24;60.84;96134.16;5030537;28;20057;-75